sensor_id;sensor_type;location;lat;lon;timestamp;P1;durP1;ratioP1;P2;durP2;ratioP2
52512;SDS011;38422;53.172;6.974;2022-12-24T00:01:18;18.45;;;12.20;;
52512;SDS011;38422;53.172;6.974;2022-12-24T00:03:43;17.63;;;11.75;;
52512;SDS011;38422;53.172;6.974;2022-12-24T00:06:12;16.80;;;11.30;;
52512;SDS011;38422;53.172;6.974;2022-12-24T00:08:44;17.92;;;11.75;;
52512;SDS011;38422;53.172;6.974;2022-12-24T00:11:10;16.90;;;11.52;;
52512;SDS011;38422;53.172;6.974;2022-12-24T00:13:36;19.15;;;12.05;;
52512;SDS011;38422;53.172;6.974;2022-12-24T00:16:01;16.63;;;11.50;;
52512;SDS011;38422;53.172;6.974;2022-12-24T00:18:27;18.67;;;12.23;;
52512;SDS011;38422;53.172;6.974;2022-12-24T00:20:53;18.20;;;12.13;;
52512;SDS011;38422;53.172;6.974;2022-12-24T00:23:19;18.40;;;10.93;;
52512;SDS011;38422;53.172;6.974;2022-12-24T00:25:45;19.60;;;11.05;;
52512;SDS011;38422;53.172;6.974;2022-12-24T00:28:11;17.10;;;11.45;;
52512;SDS011;38422;53.172;6.974;2022-12-24T00:30:38;16.55;;;11.68;;
52512;SDS011;38422;53.172;6.974;2022-12-24T00:33:05;15.85;;;11.20;;
52512;SDS011;38422;53.172;6.974;2022-12-24T00:35:34;15.95;;;11.05;;
52512;SDS011;38422;53.172;6.974;2022-12-24T00:38:01;20.15;;;11.48;;
52512;SDS011;38422;53.172;6.974;2022-12-24T00:40:28;15.45;;;10.43;;
52512;SDS011;38422;53.172;6.974;2022-12-24T00:42:54;18.50;;;11.20;;
52512;SDS011;38422;53.172;6.974;2022-12-24T00:45:20;15.25;;;10.65;;
52512;SDS011;38422;53.172;6.974;2022-12-24T00:47:46;19.33;;;11.40;;
52512;SDS011;38422;53.172;6.974;2022-12-24T00:50:11;16.77;;;10.68;;
52512;SDS011;38422;53.172;6.974;2022-12-24T00:52:37;15.88;;;10.75;;
52512;SDS011;38422;53.172;6.974;2022-12-24T00:55:03;15.27;;;10.57;;
52512;SDS011;38422;53.172;6.974;2022-12-24T00:57:29;15.73;;;11.27;;
52512;SDS011;38422;53.172;6.974;2022-12-24T00:59:54;16.27;;;10.88;;
52512;SDS011;38422;53.172;6.974;2022-12-24T01:02:20;20.30;;;11.80;;
52512;SDS011;38422;53.172;6.974;2022-12-24T01:04:46;15.70;;;11.30;;
52512;SDS011;38422;53.172;6.974;2022-12-24T01:07:30;17.00;;;11.30;;
52512;SDS011;38422;53.172;6.974;2022-12-24T01:09:56;20.13;;;11.65;;
52512;SDS011;38422;53.172;6.974;2022-12-24T01:12:22;16.08;;;10.95;;
52512;SDS011;38422;53.172;6.974;2022-12-24T01:14:48;17.40;;;11.30;;
52512;SDS011;38422;53.172;6.974;2022-12-24T01:17:13;18.73;;;11.68;;
52512;SDS011;38422;53.172;6.974;2022-12-24T01:19:39;16.67;;;11.35;;
52512;SDS011;38422;53.172;6.974;2022-12-24T01:22:05;16.88;;;11.48;;
52512;SDS011;38422;53.172;6.974;2022-12-24T01:24:30;18.23;;;11.23;;
52512;SDS011;38422;53.172;6.974;2022-12-24T01:26:56;16.95;;;11.32;;
52512;SDS011;38422;53.172;6.974;2022-12-24T01:29:22;17.35;;;11.63;;
52512;SDS011;38422;53.172;6.974;2022-12-24T01:31:47;16.98;;;11.65;;
52512;SDS011;38422;53.172;6.974;2022-12-24T01:34:13;19.17;;;11.43;;
52512;SDS011;38422;53.172;6.974;2022-12-24T01:36:39;15.98;;;11.23;;
52512;SDS011;38422;53.172;6.974;2022-12-24T01:39:04;13.48;;;10.32;;
52512;SDS011;38422;53.172;6.974;2022-12-24T01:41:30;16.77;;;11.05;;
52512;SDS011;38422;53.172;6.974;2022-12-24T01:44:29;16.75;;;11.40;;
52512;SDS011;38422;53.172;6.974;2022-12-24T01:49:38;16.73;;;11.07;;
52512;SDS011;38422;53.172;6.974;2022-12-24T01:52:12;16.23;;;11.23;;
52512;SDS011;38422;53.172;6.974;2022-12-24T01:54:45;15.65;;;10.60;;
52512;SDS011;38422;53.172;6.974;2022-12-24T01:59:44;17.52;;;11.15;;
52512;SDS011;38422;53.172;6.974;2022-12-24T02:02:13;16.35;;;11.10;;
52512;SDS011;38422;53.172;6.974;2022-12-24T02:04:52;16.67;;;10.52;;
52512;SDS011;38422;53.172;6.974;2022-12-24T02:07:26;15.35;;;10.90;;
52512;SDS011;38422;53.172;6.974;2022-12-24T02:09:53;16.17;;;10.75;;
52512;SDS011;38422;53.172;6.974;2022-12-24T02:12:21;17.08;;;11.00;;
52512;SDS011;38422;53.172;6.974;2022-12-24T02:14:47;17.83;;;11.25;;
52512;SDS011;38422;53.172;6.974;2022-12-24T02:17:25;16.58;;;11.48;;
52512;SDS011;38422;53.172;6.974;2022-12-24T02:31:49;19.23;;;11.50;;
52512;SDS011;38422;53.172;6.974;2022-12-24T02:37:16;18.52;;;12.25;;
52512;SDS011;38422;53.172;6.974;2022-12-24T02:40:03;19.07;;;12.00;;
52512;SDS011;38422;53.172;6.974;2022-12-24T02:42:35;17.88;;;12.73;;
52512;SDS011;38422;53.172;6.974;2022-12-24T02:48:09;17.10;;;11.93;;
52512;SDS011;38422;53.172;6.974;2022-12-24T02:50:37;18.00;;;12.75;;
52512;SDS011;38422;53.172;6.974;2022-12-24T02:53:04;19.52;;;12.82;;
52512;SDS011;38422;53.172;6.974;2022-12-24T02:55:38;22.10;;;13.82;;
52512;SDS011;38422;53.172;6.974;2022-12-24T03:03:52;16.73;;;12.30;;
52512;SDS011;38422;53.172;6.974;2022-12-24T03:06:42;25.10;;;14.32;;
52512;SDS011;38422;53.172;6.974;2022-12-24T03:09:31;23.07;;;13.37;;
52512;SDS011;38422;53.172;6.974;2022-12-24T03:12:12;19.52;;;12.88;;
52512;SDS011;38422;53.172;6.974;2022-12-24T03:14:42;20.90;;;13.35;;
52512;SDS011;38422;53.172;6.974;2022-12-24T03:17:08;23.15;;;14.20;;
52512;SDS011;38422;53.172;6.974;2022-12-24T03:19:34;21.75;;;14.63;;
52512;SDS011;38422;53.172;6.974;2022-12-24T03:22:01;25.98;;;15.25;;
52512;SDS011;38422;53.172;6.974;2022-12-24T03:24:31;26.63;;;15.75;;
52512;SDS011;38422;53.172;6.974;2022-12-24T03:26:57;24.63;;;15.38;;
52512;SDS011;38422;53.172;6.974;2022-12-24T03:29:24;20.35;;;13.95;;
52512;SDS011;38422;53.172;6.974;2022-12-24T03:31:51;21.40;;;14.10;;
52512;SDS011;38422;53.172;6.974;2022-12-24T03:34:22;23.70;;;14.52;;
52512;SDS011;38422;53.172;6.974;2022-12-24T03:36:48;21.45;;;14.02;;
52512;SDS011;38422;53.172;6.974;2022-12-24T03:39:14;21.38;;;14.10;;
52512;SDS011;38422;53.172;6.974;2022-12-24T03:41:40;21.60;;;13.70;;
52512;SDS011;38422;53.172;6.974;2022-12-24T03:44:05;20.55;;;13.57;;
52512;SDS011;38422;53.172;6.974;2022-12-24T03:46:31;20.70;;;12.82;;
52512;SDS011;38422;53.172;6.974;2022-12-24T03:48:57;18.45;;;12.85;;
52512;SDS011;38422;53.172;6.974;2022-12-24T03:51:23;17.67;;;10.82;;
52512;SDS011;38422;53.172;6.974;2022-12-24T03:53:53;22.65;;;13.02;;
52512;SDS011;38422;53.172;6.974;2022-12-24T03:56:20;21.50;;;13.13;;
52512;SDS011;38422;53.172;6.974;2022-12-24T03:58:46;17.73;;;11.57;;
52512;SDS011;38422;53.172;6.974;2022-12-24T04:01:12;19.65;;;11.23;;
52512;SDS011;38422;53.172;6.974;2022-12-24T04:03:38;16.48;;;10.32;;
52512;SDS011;38422;53.172;6.974;2022-12-24T04:06:05;16.27;;;10.43;;
52512;SDS011;38422;53.172;6.974;2022-12-24T04:08:33;16.60;;;10.00;;
52512;SDS011;38422;53.172;6.974;2022-12-24T04:10:59;17.42;;;9.38;;
52512;SDS011;38422;53.172;6.974;2022-12-24T04:13:24;16.95;;;9.48;;
52512;SDS011;38422;53.172;6.974;2022-12-24T04:16:00;17.58;;;9.55;;
52512;SDS011;38422;53.172;6.974;2022-12-24T04:18:28;18.42;;;9.40;;
52512;SDS011;38422;53.172;6.974;2022-12-24T04:20:54;17.13;;;10.00;;
52512;SDS011;38422;53.172;6.974;2022-12-24T04:23:20;14.15;;;8.35;;
52512;SDS011;38422;53.172;6.974;2022-12-24T04:25:46;14.30;;;8.23;;
52512;SDS011;38422;53.172;6.974;2022-12-24T04:28:12;14.30;;;8.60;;
52512;SDS011;38422;53.172;6.974;2022-12-24T04:30:38;20.88;;;9.32;;
52512;SDS011;38422;53.172;6.974;2022-12-24T04:33:04;18.08;;;9.43;;
52512;SDS011;38422;53.172;6.974;2022-12-24T04:35:30;18.48;;;9.10;;
52512;SDS011;38422;53.172;6.974;2022-12-24T04:37:56;17.77;;;9.00;;
52512;SDS011;38422;53.172;6.974;2022-12-24T04:40:21;17.13;;;9.25;;
52512;SDS011;38422;53.172;6.974;2022-12-24T04:42:47;19.73;;;9.45;;
52512;SDS011;38422;53.172;6.974;2022-12-24T04:45:14;17.50;;;8.98;;
52512;SDS011;38422;53.172;6.974;2022-12-24T04:47:41;19.50;;;8.20;;
52512;SDS011;38422;53.172;6.974;2022-12-24T04:50:06;18.45;;;9.40;;
52512;SDS011;38422;53.172;6.974;2022-12-24T04:52:33;20.20;;;8.05;;
52512;SDS011;38422;53.172;6.974;2022-12-24T04:54:59;16.48;;;5.80;;
52512;SDS011;38422;53.172;6.974;2022-12-24T04:57:24;21.90;;;6.07;;
52512;SDS011;38422;53.172;6.974;2022-12-24T04:59:50;20.33;;;5.70;;
52512;SDS011;38422;53.172;6.974;2022-12-24T05:02:16;26.13;;;5.78;;
52512;SDS011;38422;53.172;6.974;2022-12-24T05:04:41;22.52;;;4.90;;
52512;SDS011;38422;53.172;6.974;2022-12-24T05:07:07;24.20;;;4.53;;
52512;SDS011;38422;53.172;6.974;2022-12-24T05:09:33;26.95;;;4.50;;
52512;SDS011;38422;53.172;6.974;2022-12-24T05:11:58;22.92;;;3.95;;
52512;SDS011;38422;53.172;6.974;2022-12-24T05:14:24;26.13;;;4.35;;
52512;SDS011;38422;53.172;6.974;2022-12-24T05:16:50;31.90;;;3.95;;
52512;SDS011;38422;53.172;6.974;2022-12-24T05:19:15;20.85;;;3.70;;
52512;SDS011;38422;53.172;6.974;2022-12-24T05:21:41;22.50;;;3.58;;
52512;SDS011;38422;53.172;6.974;2022-12-24T05:24:09;21.60;;;4.20;;
52512;SDS011;38422;53.172;6.974;2022-12-24T05:26:55;22.67;;;3.92;;
52512;SDS011;38422;53.172;6.974;2022-12-24T05:29:22;24.10;;;3.78;;
52512;SDS011;38422;53.172;6.974;2022-12-24T05:31:48;22.15;;;3.25;;
52512;SDS011;38422;53.172;6.974;2022-12-24T05:34:14;25.48;;;3.65;;
52512;SDS011;38422;53.172;6.974;2022-12-24T05:36:41;29.10;;;3.92;;
52512;SDS011;38422;53.172;6.974;2022-12-24T05:39:09;25.80;;;4.57;;
52512;SDS011;38422;53.172;6.974;2022-12-24T05:41:39;23.65;;;3.92;;
52512;SDS011;38422;53.172;6.974;2022-12-24T05:44:04;23.25;;;3.60;;
52512;SDS011;38422;53.172;6.974;2022-12-24T05:46:30;30.55;;;3.83;;
52512;SDS011;38422;53.172;6.974;2022-12-24T05:48:56;27.95;;;3.67;;
52512;SDS011;38422;53.172;6.974;2022-12-24T05:51:22;27.73;;;4.55;;
52512;SDS011;38422;53.172;6.974;2022-12-24T05:53:48;25.52;;;3.40;;
52512;SDS011;38422;53.172;6.974;2022-12-24T05:56:20;24.38;;;4.00;;
52512;SDS011;38422;53.172;6.974;2022-12-24T05:58:46;28.02;;;3.65;;
52512;SDS011;38422;53.172;6.974;2022-12-24T06:01:13;25.70;;;3.88;;
52512;SDS011;38422;53.172;6.974;2022-12-24T06:03:39;28.58;;;4.00;;
52512;SDS011;38422;53.172;6.974;2022-12-24T06:06:05;34.65;;;4.80;;
52512;SDS011;38422;53.172;6.974;2022-12-24T06:08:33;26.67;;;4.40;;
52512;SDS011;38422;53.172;6.974;2022-12-24T06:11:01;18.67;;;3.45;;
52512;SDS011;38422;53.172;6.974;2022-12-24T06:13:29;25.63;;;3.90;;
52512;SDS011;38422;53.172;6.974;2022-12-24T06:15:59;31.13;;;4.53;;
52512;SDS011;38422;53.172;6.974;2022-12-24T06:18:30;26.13;;;4.32;;
52512;SDS011;38422;53.172;6.974;2022-12-24T06:20:57;29.55;;;4.63;;
52512;SDS011;38422;53.172;6.974;2022-12-24T06:23:24;29.52;;;3.85;;
52512;SDS011;38422;53.172;6.974;2022-12-24T06:25:50;29.98;;;4.78;;
52512;SDS011;38422;53.172;6.974;2022-12-24T06:28:16;26.92;;;3.75;;
52512;SDS011;38422;53.172;6.974;2022-12-24T06:30:46;23.63;;;4.63;;
52512;SDS011;38422;53.172;6.974;2022-12-24T06:33:13;30.23;;;3.90;;
52512;SDS011;38422;53.172;6.974;2022-12-24T06:35:39;28.17;;;4.25;;
52512;SDS011;38422;53.172;6.974;2022-12-24T06:38:05;28.02;;;3.75;;
52512;SDS011;38422;53.172;6.974;2022-12-24T06:40:31;32.88;;;4.13;;
52512;SDS011;38422;53.172;6.974;2022-12-24T06:42:57;35.72;;;5.18;;
52512;SDS011;38422;53.172;6.974;2022-12-24T06:45:22;32.55;;;4.40;;
52512;SDS011;38422;53.172;6.974;2022-12-24T06:47:48;32.38;;;4.47;;
52512;SDS011;38422;53.172;6.974;2022-12-24T06:50:14;31.30;;;4.32;;
52512;SDS011;38422;53.172;6.974;2022-12-24T06:52:41;26.92;;;4.30;;
52512;SDS011;38422;53.172;6.974;2022-12-24T06:55:06;32.28;;;4.22;;
52512;SDS011;38422;53.172;6.974;2022-12-24T06:57:32;29.92;;;4.30;;
52512;SDS011;38422;53.172;6.974;2022-12-24T06:59:58;33.92;;;4.38;;
52512;SDS011;38422;53.172;6.974;2022-12-24T07:02:24;31.27;;;4.45;;
52512;SDS011;38422;53.172;6.974;2022-12-24T07:04:50;28.85;;;4.32;;
52512;SDS011;38422;53.172;6.974;2022-12-24T07:07:16;29.80;;;4.18;;
52512;SDS011;38422;53.172;6.974;2022-12-24T07:09:42;26.33;;;4.00;;
52512;SDS011;38422;53.172;6.974;2022-12-24T07:12:07;26.15;;;4.38;;
52512;SDS011;38422;53.172;6.974;2022-12-24T07:14:33;30.30;;;4.55;;
52512;SDS011;38422;53.172;6.974;2022-12-24T07:16:59;30.13;;;5.15;;
52512;SDS011;38422;53.172;6.974;2022-12-24T07:19:25;22.92;;;4.72;;
52512;SDS011;38422;53.172;6.974;2022-12-24T07:21:50;26.95;;;3.92;;
52512;SDS011;38422;53.172;6.974;2022-12-24T07:24:16;36.45;;;4.95;;
52512;SDS011;38422;53.172;6.974;2022-12-24T07:26:42;24.50;;;4.22;;
52512;SDS011;38422;53.172;6.974;2022-12-24T07:29:07;28.02;;;4.28;;
52512;SDS011;38422;53.172;6.974;2022-12-24T07:31:33;30.13;;;4.82;;
52512;SDS011;38422;53.172;6.974;2022-12-24T07:33:59;26.75;;;4.00;;
52512;SDS011;38422;53.172;6.974;2022-12-24T07:36:24;32.95;;;4.55;;
52512;SDS011;38422;53.172;6.974;2022-12-24T07:38:52;26.40;;;4.13;;
52512;SDS011;38422;53.172;6.974;2022-12-24T07:41:18;28.05;;;3.58;;
52512;SDS011;38422;53.172;6.974;2022-12-24T07:43:44;28.35;;;4.13;;
52512;SDS011;38422;53.172;6.974;2022-12-24T07:46:10;31.55;;;3.70;;
52512;SDS011;38422;53.172;6.974;2022-12-24T07:48:36;30.95;;;4.22;;
52512;SDS011;38422;53.172;6.974;2022-12-24T07:51:02;22.73;;;4.47;;
52512;SDS011;38422;53.172;6.974;2022-12-24T07:53:28;31.48;;;4.43;;
52512;SDS011;38422;53.172;6.974;2022-12-24T07:55:55;31.77;;;4.53;;
52512;SDS011;38422;53.172;6.974;2022-12-24T07:58:22;31.65;;;4.20;;
52512;SDS011;38422;53.172;6.974;2022-12-24T08:00:48;26.80;;;4.10;;
52512;SDS011;38422;53.172;6.974;2022-12-24T08:03:15;32.08;;;3.90;;
52512;SDS011;38422;53.172;6.974;2022-12-24T08:05:45;24.30;;;4.30;;
52512;SDS011;38422;53.172;6.974;2022-12-24T08:08:11;27.55;;;4.30;;
52512;SDS011;38422;53.172;6.974;2022-12-24T08:10:37;35.50;;;5.07;;
52512;SDS011;38422;53.172;6.974;2022-12-24T08:13:04;23.20;;;4.27;;
52512;SDS011;38422;53.172;6.974;2022-12-24T08:15:29;22.50;;;3.83;;
52512;SDS011;38422;53.172;6.974;2022-12-24T08:17:55;26.15;;;4.38;;
52512;SDS011;38422;53.172;6.974;2022-12-24T08:20:21;29.27;;;4.50;;
52512;SDS011;38422;53.172;6.974;2022-12-24T08:22:46;32.88;;;4.15;;
52512;SDS011;38422;53.172;6.974;2022-12-24T08:25:12;29.33;;;4.03;;
52512;SDS011;38422;53.172;6.974;2022-12-24T08:27:38;27.27;;;4.03;;
52512;SDS011;38422;53.172;6.974;2022-12-24T08:30:03;28.70;;;4.68;;
52512;SDS011;38422;53.172;6.974;2022-12-24T08:32:30;31.17;;;4.03;;
52512;SDS011;38422;53.172;6.974;2022-12-24T08:34:55;25.90;;;4.20;;
52512;SDS011;38422;53.172;6.974;2022-12-24T08:37:21;30.65;;;4.95;;
52512;SDS011;38422;53.172;6.974;2022-12-24T08:39:47;30.55;;;4.75;;
52512;SDS011;38422;53.172;6.974;2022-12-24T08:42:12;28.98;;;4.43;;
52512;SDS011;38422;53.172;6.974;2022-12-24T08:44:38;26.30;;;4.30;;
52512;SDS011;38422;53.172;6.974;2022-12-24T08:47:04;25.35;;;3.97;;
52512;SDS011;38422;53.172;6.974;2022-12-24T08:49:29;19.90;;;3.85;;
52512;SDS011;38422;53.172;6.974;2022-12-24T08:51:55;22.05;;;4.05;;
52512;SDS011;38422;53.172;6.974;2022-12-24T08:54:21;23.63;;;4.10;;
52512;SDS011;38422;53.172;6.974;2022-12-24T08:56:49;28.63;;;3.92;;
52512;SDS011;38422;53.172;6.974;2022-12-24T08:59:15;22.10;;;3.67;;
52512;SDS011;38422;53.172;6.974;2022-12-24T09:01:41;27.95;;;4.72;;
52512;SDS011;38422;53.172;6.974;2022-12-24T09:04:07;25.95;;;4.18;;
52512;SDS011;38422;53.172;6.974;2022-12-24T09:06:33;24.93;;;4.47;;
52512;SDS011;38422;53.172;6.974;2022-12-24T09:09:00;22.48;;;3.83;;
52512;SDS011;38422;53.172;6.974;2022-12-24T09:11:26;23.67;;;3.97;;
52512;SDS011;38422;53.172;6.974;2022-12-24T09:13:52;29.42;;;4.07;;
52512;SDS011;38422;53.172;6.974;2022-12-24T09:16:18;26.60;;;4.18;;
52512;SDS011;38422;53.172;6.974;2022-12-24T09:18:44;27.60;;;4.78;;
52512;SDS011;38422;53.172;6.974;2022-12-24T09:21:10;27.33;;;4.18;;
52512;SDS011;38422;53.172;6.974;2022-12-24T09:23:39;29.70;;;4.75;;
52512;SDS011;38422;53.172;6.974;2022-12-24T09:26:11;28.70;;;4.75;;
52512;SDS011;38422;53.172;6.974;2022-12-24T09:28:39;27.95;;;4.72;;
52512;SDS011;38422;53.172;6.974;2022-12-24T09:31:05;32.88;;;4.38;;
52512;SDS011;38422;53.172;6.974;2022-12-24T09:33:35;23.33;;;4.05;;
52512;SDS011;38422;53.172;6.974;2022-12-24T09:36:02;25.10;;;4.45;;
52512;SDS011;38422;53.172;6.974;2022-12-24T09:38:29;30.77;;;4.30;;
52512;SDS011;38422;53.172;6.974;2022-12-24T09:40:54;28.92;;;4.40;;
52512;SDS011;38422;53.172;6.974;2022-12-24T09:43:22;30.10;;;4.72;;
52512;SDS011;38422;53.172;6.974;2022-12-24T09:46:08;25.95;;;4.05;;
52512;SDS011;38422;53.172;6.974;2022-12-24T09:48:43;32.28;;;4.75;;
52512;SDS011;38422;53.172;6.974;2022-12-24T09:51:14;30.65;;;4.88;;
52512;SDS011;38422;53.172;6.974;2022-12-24T09:56:30;24.83;;;4.90;;
52512;SDS011;38422;53.172;6.974;2022-12-24T10:01:29;26.50;;;4.38;;
52512;SDS011;38422;53.172;6.974;2022-12-24T10:03:57;26.52;;;4.35;;
52512;SDS011;38422;53.172;6.974;2022-12-24T10:06:32;22.13;;;4.15;;
52512;SDS011;38422;53.172;6.974;2022-12-24T10:15:07;27.08;;;4.43;;
52512;SDS011;38422;53.172;6.974;2022-12-24T10:17:47;24.35;;;4.28;;
52512;SDS011;38422;53.172;6.974;2022-12-24T10:31:24;29.85;;;4.80;;
52512;SDS011;38422;53.172;6.974;2022-12-24T10:33:54;29.77;;;4.88;;
52512;SDS011;38422;53.172;6.974;2022-12-24T10:36:25;25.20;;;4.35;;
52512;SDS011;38422;53.172;6.974;2022-12-24T10:38:52;26.40;;;4.47;;
52512;SDS011;38422;53.172;6.974;2022-12-24T10:41:19;22.67;;;4.30;;
52512;SDS011;38422;53.172;6.974;2022-12-24T10:43:45;23.43;;;4.37;;
52512;SDS011;38422;53.172;6.974;2022-12-24T10:46:15;21.52;;;3.97;;
52512;SDS011;38422;53.172;6.974;2022-12-24T10:48:49;30.98;;;4.93;;
52512;SDS011;38422;53.172;6.974;2022-12-24T10:51:29;23.50;;;4.15;;
52512;SDS011;38422;53.172;6.974;2022-12-24T10:54:20;23.42;;;4.28;;
52512;SDS011;38422;53.172;6.974;2022-12-24T10:56:49;20.75;;;4.57;;
52512;SDS011;38422;53.172;6.974;2022-12-24T11:02:09;26.35;;;4.03;;
52512;SDS011;38422;53.172;6.974;2022-12-24T11:04:48;17.42;;;3.15;;
52512;SDS011;38422;53.172;6.974;2022-12-24T11:07:19;21.70;;;3.77;;
52512;SDS011;38422;53.172;6.974;2022-12-24T11:09:54;15.77;;;3.03;;
52512;SDS011;38422;53.172;6.974;2022-12-24T11:12:27;20.40;;;3.45;;
52512;SDS011;38422;53.172;6.974;2022-12-24T11:15:03;19.60;;;3.17;;
52512;SDS011;38422;53.172;6.974;2022-12-24T11:17:31;16.75;;;2.72;;
52512;SDS011;38422;53.172;6.974;2022-12-24T11:19:57;19.60;;;3.47;;
52512;SDS011;38422;53.172;6.974;2022-12-24T11:22:25;18.00;;;3.20;;
52512;SDS011;38422;53.172;6.974;2022-12-24T11:24:57;18.10;;;3.55;;
52512;SDS011;38422;53.172;6.974;2022-12-24T11:27:41;20.83;;;3.63;;
52512;SDS011;38422;53.172;6.974;2022-12-24T11:32:46;16.42;;;3.08;;
52512;SDS011;38422;53.172;6.974;2022-12-24T11:35:38;16.70;;;3.22;;
52512;SDS011;38422;53.172;6.974;2022-12-24T11:38:11;17.45;;;3.17;;
52512;SDS011;38422;53.172;6.974;2022-12-24T11:40:42;19.10;;;2.80;;
52512;SDS011;38422;53.172;6.974;2022-12-24T11:45:54;17.90;;;3.15;;
52512;SDS011;38422;53.172;6.974;2022-12-24T11:50:54;19.38;;;3.17;;
52512;SDS011;38422;53.172;6.974;2022-12-24T11:53:22;21.10;;;3.45;;
52512;SDS011;38422;53.172;6.974;2022-12-24T11:55:54;23.92;;;4.00;;
52512;SDS011;38422;53.172;6.974;2022-12-24T11:58:41;20.23;;;3.72;;
52512;SDS011;38422;53.172;6.974;2022-12-24T12:03:39;23.40;;;4.63;;
52512;SDS011;38422;53.172;6.974;2022-12-24T12:06:25;21.42;;;4.13;;
52512;SDS011;38422;53.172;6.974;2022-12-24T12:08:56;19.52;;;3.03;;
52512;SDS011;38422;53.172;6.974;2022-12-24T12:11:26;18.25;;;3.47;;
52512;SDS011;38422;53.172;6.974;2022-12-24T12:13:53;18.35;;;3.47;;
52512;SDS011;38422;53.172;6.974;2022-12-24T12:16:23;17.85;;;3.28;;
52512;SDS011;38422;53.172;6.974;2022-12-24T12:19:38;16.65;;;3.17;;
52512;SDS011;38422;53.172;6.974;2022-12-24T12:22:17;21.23;;;3.40;;
52512;SDS011;38422;53.172;6.974;2022-12-24T12:24:48;17.23;;;3.33;;
52512;SDS011;38422;53.172;6.974;2022-12-24T12:30:03;16.45;;;3.10;;
52512;SDS011;38422;53.172;6.974;2022-12-24T12:37:47;18.48;;;3.50;;
52512;SDS011;38422;53.172;6.974;2022-12-24T12:40:52;22.67;;;3.58;;
52512;SDS011;38422;53.172;6.974;2022-12-24T12:45:54;20.35;;;3.08;;
52512;SDS011;38422;53.172;6.974;2022-12-24T12:51:07;17.38;;;3.25;;
52512;SDS011;38422;53.172;6.974;2022-12-24T12:59:02;22.17;;;3.25;;
52512;SDS011;38422;53.172;6.974;2022-12-24T13:20:48;14.73;;;2.75;;
52512;SDS011;38422;53.172;6.974;2022-12-24T13:23:22;17.02;;;3.22;;
52512;SDS011;38422;53.172;6.974;2022-12-24T13:25:51;15.93;;;3.35;;
52512;SDS011;38422;53.172;6.974;2022-12-24T13:30:48;18.10;;;3.22;;
52512;SDS011;38422;53.172;6.974;2022-12-24T13:36:02;15.88;;;3.10;;
52512;SDS011;38422;53.172;6.974;2022-12-24T13:38:38;15.75;;;2.50;;
52512;SDS011;38422;53.172;6.974;2022-12-24T13:49:38;16.23;;;2.42;;
52512;SDS011;38422;53.172;6.974;2022-12-24T13:55:13;15.82;;;3.38;;
52512;SDS011;38422;53.172;6.974;2022-12-24T14:07:56;16.48;;;2.72;;
52512;SDS011;38422;53.172;6.974;2022-12-24T14:10:25;17.42;;;3.13;;
52512;SDS011;38422;53.172;6.974;2022-12-24T14:12:54;13.25;;;2.60;;
52512;SDS011;38422;53.172;6.974;2022-12-24T14:18:19;18.00;;;2.90;;
52512;SDS011;38422;53.172;6.974;2022-12-24T14:20:48;12.70;;;2.25;;
52512;SDS011;38422;53.172;6.974;2022-12-24T14:23:24;18.02;;;2.92;;
52512;SDS011;38422;53.172;6.974;2022-12-24T14:25:56;16.85;;;2.60;;
52512;SDS011;38422;53.172;6.974;2022-12-24T14:28:27;14.07;;;2.47;;
52512;SDS011;38422;53.172;6.974;2022-12-24T14:30:59;15.10;;;2.75;;
52512;SDS011;38422;53.172;6.974;2022-12-24T14:35:53;13.32;;;2.53;;
52512;SDS011;38422;53.172;6.974;2022-12-24T14:38:19;14.02;;;2.60;;
52512;SDS011;38422;53.172;6.974;2022-12-24T14:40:49;15.48;;;2.78;;
52512;SDS011;38422;53.172;6.974;2022-12-24T14:43:25;19.48;;;2.95;;
52512;SDS011;38422;53.172;6.974;2022-12-24T14:48:54;14.27;;;2.60;;
52512;SDS011;38422;53.172;6.974;2022-12-24T14:54:31;16.48;;;2.63;;
52512;SDS011;38422;53.172;6.974;2022-12-24T14:59:47;13.52;;;2.10;;
52512;SDS011;38422;53.172;6.974;2022-12-24T15:05:16;11.23;;;2.30;;
52512;SDS011;38422;53.172;6.974;2022-12-24T15:13:03;14.88;;;3.42;;
52512;SDS011;38422;53.172;6.974;2022-12-24T15:15:33;14.80;;;2.53;;
52512;SDS011;38422;53.172;6.974;2022-12-24T15:17:59;12.02;;;2.58;;
52512;SDS011;38422;53.172;6.974;2022-12-24T15:20:27;17.13;;;3.42;;
52512;SDS011;38422;53.172;6.974;2022-12-24T15:22:55;14.32;;;2.65;;
52512;SDS011;38422;53.172;6.974;2022-12-24T15:25:24;16.92;;;2.38;;
52512;SDS011;38422;53.172;6.974;2022-12-24T15:27:52;16.27;;;2.50;;
52512;SDS011;38422;53.172;6.974;2022-12-24T15:30:19;12.45;;;2.20;;
52512;SDS011;38422;53.172;6.974;2022-12-24T15:32:54;10.98;;;2.08;;
52512;SDS011;38422;53.172;6.974;2022-12-24T15:35:28;11.10;;;2.20;;
52512;SDS011;38422;53.172;6.974;2022-12-24T15:37:56;15.82;;;3.13;;
52512;SDS011;38422;53.172;6.974;2022-12-24T15:40:23;11.02;;;2.85;;
52512;SDS011;38422;53.172;6.974;2022-12-24T15:42:49;9.07;;;2.00;;
52512;SDS011;38422;53.172;6.974;2022-12-24T15:45:17;11.52;;;2.28;;
52512;SDS011;38422;53.172;6.974;2022-12-24T15:47:48;9.20;;;1.67;;
52512;SDS011;38422;53.172;6.974;2022-12-24T15:53:02;12.35;;;2.58;;
52512;SDS011;38422;53.172;6.974;2022-12-24T15:55:35;12.57;;;2.15;;
52512;SDS011;38422;53.172;6.974;2022-12-24T16:00:58;12.10;;;2.45;;
52512;SDS011;38422;53.172;6.974;2022-12-24T16:03:37;12.75;;;2.20;;
52512;SDS011;38422;53.172;6.974;2022-12-24T16:06:05;14.05;;;2.78;;
52512;SDS011;38422;53.172;6.974;2022-12-24T16:08:33;12.40;;;2.40;;
52512;SDS011;38422;53.172;6.974;2022-12-24T16:13:34;14.05;;;2.70;;
52512;SDS011;38422;53.172;6.974;2022-12-24T16:16:13;15.43;;;3.13;;
52512;SDS011;38422;53.172;6.974;2022-12-24T16:21:22;13.55;;;2.80;;
52512;SDS011;38422;53.172;6.974;2022-12-24T16:23:53;13.63;;;2.72;;
52512;SDS011;38422;53.172;6.974;2022-12-24T16:26:21;11.90;;;2.78;;
52512;SDS011;38422;53.172;6.974;2022-12-24T16:28:47;12.60;;;2.95;;
52512;SDS011;38422;53.172;6.974;2022-12-24T16:31:16;13.38;;;2.67;;
52512;SDS011;38422;53.172;6.974;2022-12-24T16:33:51;17.88;;;2.97;;
52512;SDS011;38422;53.172;6.974;2022-12-24T16:36:18;13.07;;;2.60;;
52512;SDS011;38422;53.172;6.974;2022-12-24T16:38:44;11.32;;;2.08;;
52512;SDS011;38422;53.172;6.974;2022-12-24T16:41:28;12.00;;;2.22;;
52512;SDS011;38422;53.172;6.974;2022-12-24T16:43:54;12.85;;;2.70;;
52512;SDS011;38422;53.172;6.974;2022-12-24T16:46:19;10.15;;;2.38;;
52512;SDS011;38422;53.172;6.974;2022-12-24T16:48:46;14.18;;;2.72;;
52512;SDS011;38422;53.172;6.974;2022-12-24T16:53:38;13.13;;;2.22;;
52512;SDS011;38422;53.172;6.974;2022-12-24T16:56:05;16.50;;;2.93;;
52512;SDS011;38422;53.172;6.974;2022-12-24T16:58:31;12.13;;;2.42;;
52512;SDS011;38422;53.172;6.974;2022-12-24T17:00:56;11.30;;;2.53;;
52512;SDS011;38422;53.172;6.974;2022-12-24T17:03:23;13.35;;;2.72;;
52512;SDS011;38422;53.172;6.974;2022-12-24T17:05:49;15.13;;;2.88;;
52512;SDS011;38422;53.172;6.974;2022-12-24T17:08:15;15.75;;;2.97;;
52512;SDS011;38422;53.172;6.974;2022-12-24T17:10:47;17.05;;;2.88;;
52512;SDS011;38422;53.172;6.974;2022-12-24T17:13:14;15.50;;;2.92;;
52512;SDS011;38422;53.172;6.974;2022-12-24T17:15:40;13.80;;;3.10;;
52512;SDS011;38422;53.172;6.974;2022-12-24T17:18:06;13.35;;;2.80;;
52512;SDS011;38422;53.172;6.974;2022-12-24T17:20:32;16.83;;;3.00;;
52512;SDS011;38422;53.172;6.974;2022-12-24T17:22:57;14.32;;;3.10;;
52512;SDS011;38422;53.172;6.974;2022-12-24T17:25:23;14.38;;;2.72;;